Time;durP1;ratioP1;P1;durP2;ratioP2;P2;SDS_P1;SDS_P2;PMS_P1;PMS_P2;Temp;Humidity;BMP_temperature;BMP_pressure;BME280_temperature;BME280_humidity;BME280_pressure;Samples;Min_cycle;Max_cycle;Signal;HPM_P1;HPM_P2
2022/01/23 00:02:18;;;;;;;12.88;4.72;;;6.40;99.90;;;;;;5033632;28;20037;-93
2022/01/23 00:04:43;;;;;;;14.68;4.40;;;6.40;99.90;;;;;;5014460;28;20147;-93
2022/01/23 00:07:12;;;;;;;13.68;4.72;;;6.40;99.90;;;;;;5014396;28;20163;-93
2022/01/23 00:09:38;;;;;;;12.35;5.25;;;6.40;99.90;;;;;;5030554;28;20052;-93
2022/01/23 00:12:07;;;;;;;11.32;4.90;;;6.40;99.90;;;;;;5030413;28;20045;-92
2022/01/23 00:17:20;;;;;;;13.18;4.53;;;6.50;99.90;;;;;;5030461;28;20041;-92
2022/01/23 00:19:52;;;;;;;12.40;4.90;;;6.50;99.90;;;;;;5030123;28;20097;-93
2022/01/23 00:22:26;;;;;;;12.43;4.65;;;6.50;99.90;;;;;;5013483;28;20033;-92
2022/01/23 00:30:25;;;;;;;14.10;4.22;;;6.50;99.90;;;;;;5029819;28;20057;-91
2022/01/23 00:32:51;;;;;;;10.75;4.22;;;6.50;99.90;;;;;;5013727;28;20402;-93
2022/01/23 00:35:17;;;;;;;12.80;4.68;;;6.60;99.90;;;;;;5013882;28;20037;-92
2022/01/23 00:37:43;;;;;;;10.77;4.20;;;6.60;99.90;;;;;;5013844;28;20041;-93
2022/01/23 00:40:10;;;;;;;12.27;4.93;;;6.50;99.90;;;;;;5030060;28;20043;-93
2022/01/23 00:42:36;;;;;;;12.13;4.43;;;6.50;99.90;;;;;;5013272;28;20640;-92
2022/01/23 00:47:37;;;;;;;10.48;4.22;;;6.50;99.90;;;;;;5034250;28;20044;-93
2022/01/23 00:50:04;;;;;;;12.85;4.82;;;6.50;99.90;;;;;;5034292;28;20041;-93
2022/01/23 00:52:29;;;;;;;12.77;4.57;;;6.50;99.90;;;;;;5033735;28;20037;-91
2022/01/23 00:54:55;;;;;;;12.55;4.75;;;6.50;99.90;;;;;;5034091;28;20410;-93
2022/01/23 00:57:21;;;;;;;13.55;5.40;;;6.50;99.90;;;;;;5017511;28;20033;-92
2022/01/23 00:59:47;;;;;;;11.15;4.55;;;6.50;99.90;;;;;;5017850;28;20099;-92
2022/01/23 01:02:12;;;;;;;11.85;4.78;;;6.50;99.90;;;;;;5033501;28;20129;-93
2022/01/23 01:04:38;;;;;;;9.95;4.50;;;6.50;99.90;;;;;;5034002;28;20045;-92
2022/01/23 01:07:04;;;;;;;10.48;4.72;;;6.50;99.90;;;;;;5017842;28;20042;-92
2022/01/23 01:09:30;;;;;;;14.43;5.75;;;6.50;99.90;;;;;;5017818;28;20048;-92
2022/01/23 01:11:59;;;;;;;15.45;5.15;;;6.50;99.90;;;;;;5017415;28;20431;-92
2022/01/23 01:14:41;;;;;;;13.35;4.53;;;6.50;99.90;;;;;;5034762;28;20045;-92
2022/01/23 01:31:21;;;;;;;9.65;4.30;;;6.40;99.90;;;;;;5033744;28;20097;-92
2022/01/23 01:33:39;;;;;;;10.70;4.30;;;6.50;99.90;;;;;;5027873;28;20509;-92
2022/01/23 01:36:33;;;;;;;10.90;5.20;;;6.50;99.90;;;;;;5033711;28;20404;-92
2022/01/23 01:38:51;;;;;;;14.13;5.15;;;6.50;99.90;;;;;;5033346;28;20049;-91
2022/01/23 01:41:18;;;;;;;11.32;4.65;;;6.50;99.90;;;;;;5016815;28;20045;-92
2022/01/23 01:43:45;;;;;;;10.95;4.55;;;6.50;99.90;;;;;;5033424;28;20495;-92
2022/01/23 01:46:10;;;;;;;15.50;4.40;;;6.50;99.90;;;;;;5034089;28;20041;-92
2022/01/23 01:48:36;;;;;;;11.57;5.00;;;6.50;99.90;;;;;;5017270;28;20099;-92
2022/01/23 01:51:05;;;;;;;11.82;4.85;;;6.50;99.90;;;;;;5033697;28;20043;-92
2022/01/23 01:53:31;;;;;;;12.20;4.88;;;6.50;99.90;;;;;;5016775;28;20064;-92
2022/01/23 01:55:57;;;;;;;12.95;4.80;;;6.50;99.90;;;;;;5016154;28;20435;-92
2022/01/23 02:09:58;;;;;;;12.48;4.72;;;6.50;99.90;;;;;;5053211;28;20049;-92
2022/01/23 02:12:40;;;;;;;12.98;4.65;;;6.50;99.90;;;;;;5045255;28;20057;-92
2022/01/23 02:55:27;;;;;;;11.07;5.10;;;6.60;99.90;;;;;;5052183;28;20045;-92
2022/01/23 02:57:57;;;;;;;12.38;4.78;;;6.60;99.90;;;;;;5051881;28;20097;-92
2022/01/23 03:00:27;;;;;;;10.23;4.90;;;6.60;99.90;;;;;;5051836;28;20045;-92
2022/01/23 03:03:00;;;;;;;13.90;5.20;;;6.70;99.90;;;;;;5035336;28;20120;-92
2022/01/23 03:08:18;;;;;;;10.68;4.93;;;6.60;99.90;;;;;;5051423;28;20045;-92
2022/01/23 03:10:57;;;;;;;10.30;5.07;;;6.60;99.90;;;;;;5035042;28;20178;-93
2022/01/23 03:24:18;;;;;;;11.52;5.00;;;6.60;99.90;;;;;;5051295;28;20076;-92
2022/01/23 03:29:27;;;;;;;13.88;5.18;;;6.60;99.90;;;;;;5051310;28;20110;-92
2022/01/23 03:34:20;;;;;;;12.20;5.38;;;6.60;99.90;;;;;;5051921;28;20107;-92
2022/01/23 03:36:46;;;;;;;11.82;4.88;;;6.70;99.90;;;;;;5051133;28;20044;-92
2022/01/23 03:39:12;;;;;;;12.45;4.95;;;6.70;99.90;;;;;;5034566;28;20039;-92
2022/01/23 03:41:40;;;;;;;9.57;4.57;;;6.60;99.90;;;;;;5050670;28;20552;-92
2022/01/23 03:44:08;;;;;;;10.88;4.50;;;6.70;99.90;;;;;;5051379;28;20060;-92
2022/01/23 03:46:48;;;;;;;11.38;4.80;;;6.60;99.90;;;;;;5050752;28;20047;-92
2022/01/23 03:49:31;;;;;;;16.05;5.75;;;6.70;99.90;;;;;;5050842;28;20124;-92
2022/01/23 03:52:03;;;;;;;11.35;5.03;;;6.60;99.90;;;;;;5050964;28;20041;-92
2022/01/23 03:54:29;;;;;;;11.45;5.03;;;6.60;99.90;;;;;;5034641;28;20087;-92
2022/01/23 03:56:57;;;;;;;11.07;5.00;;;6.60;99.90;;;;;;5050684;28;20084;-92
2022/01/23 03:59:23;;;;;;;11.07;5.47;;;6.60;99.90;;;;;;5050879;28;20044;-92
2022/01/23 04:01:49;;;;;;;14.32;5.85;;;6.60;99.90;;;;;;5034480;28;20094;-92
2022/01/23 04:04:32;;;;;;;11.82;5.07;;;6.60;99.90;;;;;;5034056;28;20045;-92
2022/01/23 04:06:58;;;;;;;14.63;5.90;;;6.60;99.90;;;;;;5034687;28;20086;-92
2022/01/23 04:09:24;;;;;;;10.07;5.43;;;6.60;99.90;;;;;;5034338;28;20131;-93
2022/01/23 04:11:50;;;;;;;12.70;5.78;;;6.60;99.90;;;;;;5050497;28;20132;-92
2022/01/23 04:14:18;;;;;;;12.10;6.20;;;6.60;99.90;;;;;;5034670;28;20044;-92
2022/01/23 04:17:11;;;;;;;11.98;6.05;;;6.60;99.90;;;;;;5034176;28;20037;-92
2022/01/23 04:19:40;;;;;;;11.95;5.88;;;6.60;99.90;;;;;;5050591;28;20490;-92
2022/01/23 04:33:27;;;;;;;13.77;6.78;;;6.60;99.90;;;;;;5050063;28;20566;-92
2022/01/23 05:01:00;;;;;;;13.13;7.25;;;6.50;99.90;;;;;;5050244;28;20041;-92
2022/01/23 05:06:01;;;;;;;14.25;7.57;;;6.50;99.90;;;;;;5050369;28;20559;-92
2022/01/23 05:08:30;;;;;;;14.43;7.18;;;6.50;99.90;;;;;;5050603;28;20119;-92
2022/01/23 05:10:59;;;;;;;13.30;7.60;;;6.50;99.90;;;;;;5033542;28;20041;-92
2022/01/23 05:13:26;;;;;;;14.32;7.20;;;6.50;99.90;;;;;;5033777;28;20041;-93
2022/01/23 05:15:52;;;;;;;14.07;7.70;;;6.50;99.90;;;;;;5050155;28;20076;-92
2022/01/23 05:18:18;;;;;;;12.90;7.68;;;6.50;99.90;;;;;;5050012;28;20029;-93
2022/01/23 05:20:45;;;;;;;13.90;8.40;;;6.50;99.90;;;;;;5050690;28;20033;-93
2022/01/23 05:23:11;;;;;;;15.15;8.05;;;6.50;99.90;;;;;;5049843;28;20494;-93
2022/01/23 05:25:38;;;;;;;12.75;7.18;;;6.50;99.90;;;;;;5032093;28;20107;-93
2022/01/23 05:28:03;;;;;;;13.80;8.10;;;6.50;99.90;;;;;;5048249;28;20553;-92
2022/01/23 05:30:29;;;;;;;13.20;7.40;;;6.50;99.90;;;;;;5050370;28;20072;-92
2022/01/23 05:32:57;;;;;;;14.25;7.60;;;6.50;99.90;;;;;;5036491;28;20479;-92
2022/01/23 05:35:24;;;;;;;14.52;6.95;;;6.50;99.90;;;;;;5037387;28;20430;-92
2022/01/23 05:37:50;;;;;;;14.40;7.82;;;6.50;99.90;;;;;;5037013;28;20490;-92
2022/01/23 05:40:18;;;;;;;13.70;7.60;;;6.50;99.90;;;;;;5036773;28;20044;-92
2022/01/23 05:42:43;;;;;;;15.73;8.05;;;6.50;99.90;;;;;;5037072;28;20044;-92
2022/01/23 05:45:10;;;;;;;12.75;8.30;;;6.50;99.90;;;;;;5037069;28;20442;-93
2022/01/23 05:47:36;;;;;;;15.55;8.63;;;6.50;99.90;;;;;;5037621;28;20033;-93
2022/01/23 05:50:04;;;;;;;16.17;8.93;;;6.50;99.90;;;;;;5053562;28;20505;-92
2022/01/23 05:52:31;;;;;;;13.43;8.40;;;6.50;99.90;;;;;;5052977;28;20083;-92
2022/01/23 05:54:57;;;;;;;14.95;8.38;;;6.40;99.90;;;;;;5037072;28;20483;-93
2022/01/23 05:57:23;;;;;;;16.20;8.70;;;6.40;99.90;;;;;;5053155;28;20037;-93
2022/01/23 05:59:48;;;;;;;15.75;8.70;;;6.40;99.90;;;;;;5053470;28;20041;-93
2022/01/23 06:02:14;;;;;;;14.45;7.93;;;6.40;99.90;;;;;;5036330;28;20048;-92
2022/01/23 06:04:40;;;;;;;14.75;8.27;;;6.40;99.90;;;;;;5036823;28;20041;-92
2022/01/23 06:07:05;;;;;;;12.27;7.93;;;6.40;99.90;;;;;;5053453;28;20476;-92
2022/01/23 06:09:31;;;;;;;17.08;8.93;;;6.40;99.90;;;;;;5036736;28;20466;-92
2022/01/23 06:11:56;;;;;;;14.65;8.88;;;6.40;99.90;;;;;;5053272;28;20072;-93
2022/01/23 06:14:22;;;;;;;15.77;9.52;;;6.40;99.90;;;;;;5036950;28;20462;-92
2022/01/23 06:16:49;;;;;;;16.98;9.13;;;6.40;99.90;;;;;;5036542;28;20660;-92
2022/01/23 06:19:14;;;;;;;17.40;8.90;;;6.40;99.90;;;;;;5036224;28;20041;-92
2022/01/23 06:21:40;;;;;;;16.25;8.45;;;6.40;99.90;;;;;;5047549;28;20099;-93
2022/01/23 06:24:09;;;;;;;16.40;8.48;;;6.40;99.90;;;;;;5015794;28;20034;-92
2022/01/23 06:26:47;;;;;;;14.52;8.65;;;6.40;99.90;;;;;;5032397;28;20049;-92
2022/01/23 06:29:15;;;;;;;18.83;8.55;;;6.40;99.90;;;;;;5016043;28;20041;-92
2022/01/23 06:31:41;;;;;;;16.20;7.60;;;6.30;99.90;;;;;;5031971;28;20542;-92
2022/01/23 06:34:08;;;;;;;16.70;8.20;;;6.30;99.90;;;;;;5015222;28;20495;-92
2022/01/23 06:36:35;;;;;;;14.35;7.97;;;6.30;99.90;;;;;;5015463;28;20080;-93
2022/01/23 06:39:02;;;;;;;16.52;8.65;;;6.30;99.90;;;;;;5015441;28;20108;-92
2022/01/23 06:41:28;;;;;;;15.98;8.30;;;6.30;99.90;;;;;;5031872;28;20037;-93
2022/01/23 06:43:54;;;;;;;15.88;7.93;;;6.30;99.90;;;;;;5015548;28;20191;-92
2022/01/23 06:46:19;;;;;;;15.18;8.52;;;6.30;99.90;;;;;;5032146;28;20553;-93
2022/01/23 06:48:45;;;;;;;17.98;9.18;;;6.30;99.90;;;;;;5032399;28;20044;-93
2022/01/23 06:51:11;;;;;;;14.38;8.88;;;6.30;99.90;;;;;;5015711;28;20087;-93
2022/01/23 06:53:36;;;;;;;17.35;9.60;;;6.30;99.90;;;;;;5015828;28;20481;-93
2022/01/23 06:56:02;;;;;;;15.85;9.25;;;6.30;99.90;;;;;;5016074;28;20049;-93
2022/01/23 06:58:27;;;;;;;17.02;9.70;;;6.30;99.90;;;;;;5032039;28;20041;-92
2022/01/23 07:00:53;;;;;;;15.05;9.30;;;6.30;99.90;;;;;;5031871;28;20044;-93
2022/01/23 07:03:19;;;;;;;16.58;9.80;;;6.30;99.90;;;;;;5014990;28;20037;-92
2022/01/23 07:05:44;;;;;;;18.25;10.27;;;6.30;99.90;;;;;;5031918;28;20037;-92
2022/01/23 07:08:10;;;;;;;17.25;9.65;;;6.20;99.90;;;;;;5031859;28;20041;-92
2022/01/23 07:10:35;;;;;;;20.00;9.73;;;6.20;99.90;;;;;;5032104;28;20037;-92
2022/01/23 07:13:01;;;;;;;19.15;9.40;;;6.20;99.90;;;;;;5015722;28;20095;-92
2022/01/23 07:15:27;;;;;;;17.85;10.07;;;6.20;99.90;;;;;;5015003;28;20048;-92
2022/01/23 07:17:52;;;;;;;17.45;9.98;;;6.20;99.90;;;;;;5014799;28;20415;-93
2022/01/23 07:20:18;;;;;;;18.38;9.98;;;6.20;99.90;;;;;;5031632;28;20041;-92
2022/01/23 07:22:43;;;;;;;19.27;10.23;;;6.10;99.90;;;;;;5030757;28;20068;-92
2022/01/23 07:25:09;;;;;;;16.95;9.48;;;6.20;99.90;;;;;;5015017;28;20041;-92
2022/01/23 07:27:45;;;;;;;17.92;9.93;;;6.10;99.90;;;;;;5031297;28;20045;-91
2022/01/23 07:30:24;;;;;;;19.58;10.02;;;6.10;99.90;;;;;;5014860;28;20041;-92
2022/01/23 07:32:50;;;;;;;21.35;11.07;;;6.10;99.90;;;;;;5014999;28;20048;-92
2022/01/23 07:35:16;;;;;;;18.67;10.02;;;6.10;99.90;;;;;;5014967;28;20037;-92
2022/01/23 07:37:42;;;;;;;21.17;10.68;;;6.10;99.90;;;;;;5014722;28;20128;-92
2022/01/23 07:40:08;;;;;;;22.05;10.95;;;6.10;99.90;;;;;;5031253;28;20129;-92
2022/01/23 07:42:34;;;;;;;20.92;11.35;;;6.10;99.90;;;;;;5013630;28;20074;-92
2022/01/23 07:45:01;;;;;;;20.80;10.98;;;6.10;99.90;;;;;;5014895;28;20474;-92
2022/01/23 07:47:26;;;;;;;18.83;11.30;;;6.20;99.90;;;;;;5014433;28;20546;-92
2022/01/23 07:49:52;;;;;;;20.35;10.15;;;6.20;99.90;;;;;;5031137;28;20041;-92
2022/01/23 07:52:18;;;;;;;20.77;10.30;;;6.20;99.90;;;;;;5014304;28;20037;-92
2022/01/23 07:54:45;;;;;;;16.35;9.13;;;6.20;99.90;;;;;;5030316;28;20419;-92
2022/01/23 07:57:10;;;;;;;20.02;11.45;;;6.30;99.90;;;;;;5013963;28;20045;-92
2022/01/23 07:59:36;;;;;;;21.15;11.10;;;6.30;99.90;;;;;;5014464;28;20044;-92
2022/01/23 08:02:03;;;;;;;20.02;11.38;;;6.30;99.90;;;;;;5013719;28;20095;-93
2022/01/23 08:04:28;;;;;;;21.23;11.68;;;6.30;99.90;;;;;;5013907;28;20037;-92
2022/01/23 08:07:08;;;;;;;22.77;12.32;;;6.30;99.90;;;;;;5014602;28;20509;-92
2022/01/23 08:09:34;;;;;;;21.25;12.18;;;6.30;99.90;;;;;;5030744;28;20041;-92
2022/01/23 08:12:00;;;;;;;20.90;11.43;;;6.30;99.90;;;;;;5013439;28;20086;-92
2022/01/23 08:14:26;;;;;;;21.25;11.82;;;6.30;99.90;;;;;;5014461;28;20033;-92
2022/01/23 08:16:51;;;;;;;23.90;12.00;;;6.30;99.90;;;;;;5030871;28;20111;-92
2022/01/23 08:19:17;;;;;;;21.02;11.85;;;6.30;99.90;;;;;;5014173;28;20037;-92
2022/01/23 08:21:42;;;;;;;21.63;12.43;;;6.30;99.90;;;;;;5030525;28;20041;-92
2022/01/23 08:24:08;;;;;;;24.48;13.52;;;6.40;99.90;;;;;;5030243;28;20045;-92
2022/01/23 08:26:34;;;;;;;22.08;11.73;;;6.40;99.90;;;;;;5014724;28;20029;-92
2022/01/23 08:29:00;;;;;;;24.35;12.68;;;6.40;99.90;;;;;;5014640;28;20115;-93
2022/01/23 08:31:26;;;;;;;22.98;11.93;;;6.30;99.90;;;;;;5030827;28;20379;-93
2022/01/23 08:33:53;;;;;;;21.77;11.93;;;6.40;99.90;;;;;;5030559;28;20517;-92
2022/01/23 08:36:19;;;;;;;22.65;13.18;;;6.40;99.90;;;;;;5030183;28;20033;-92
2022/01/23 08:38:44;;;;;;;25.33;12.25;;;6.30;99.90;;;;;;5030630;28;20549;-92
2022/01/23 08:43:46;;;;;;;23.17;11.68;;;6.40;99.90;;;;;;5030455;28;20053;-92
2022/01/23 08:46:13;;;;;;;22.67;12.50;;;6.40;99.90;;;;;;5014122;28;20041;-92
2022/01/23 08:48:40;;;;;;;22.88;12.35;;;6.40;99.90;;;;;;5030278;28;20041;-93
2022/01/23 08:51:05;;;;;;;21.77;12.07;;;6.40;99.90;;;;;;5013971;28;20088;-92
2022/01/23 08:53:31;;;;;;;22.15;12.25;;;6.40;99.90;;;;;;5013381;28;20347;-92
2022/01/23 08:55:57;;;;;;;21.92;11.88;;;6.40;99.90;;;;;;5013530;28;20077;-93
2022/01/23 08:58:22;;;;;;;23.92;12.65;;;6.40;99.90;;;;;;5029986;28;20036;-93
2022/01/23 09:00:48;;;;;;;23.77;12.68;;;6.50;99.90;;;;;;5014031;28;20426;-92
2022/01/23 09:03:14;;;;;;;24.20;12.90;;;6.50;99.90;;;;;;5011886;28;20038;-92
2022/01/23 09:05:40;;;;;;;22.73;12.57;;;6.50;99.90;;;;;;5015470;28;20030;-92
2022/01/23 09:08:06;;;;;;;24.05;12.80;;;6.50;99.90;;;;;;5018490;28;20041;-93
2022/01/23 09:10:40;;;;;;;22.52;13.25;;;6.50;99.90;;;;;;5033626;28;20483;-92
2022/01/23 09:15:32;;;;;;;21.02;12.13;;;6.60;99.90;;;;;;5042448;28;20044;-92
2022/01/23 09:17:57;;;;;;;22.02;11.93;;;6.60;99.90;;;;;;5026199;28;20045;-93
2022/01/23 09:20:23;;;;;;;18.63;11.07;;;6.60;99.90;;;;;;5049195;28;20126;-92
2022/01/23 09:22:48;;;;;;;21.77;12.38;;;6.60;99.90;;;;;;5036277;28;20466;-92
2022/01/23 09:25:14;;;;;;;18.80;10.82;;;6.70;99.90;;;;;;5034821;28;20037;-93
2022/01/23 09:27:40;;;;;;;17.83;10.15;;;6.70;99.90;;;;;;5037168;28;20107;-93
2022/01/23 09:30:16;;;;;;;23.13;11.27;;;6.70;99.90;;;;;;5037943;28;20503;-92
2022/01/23 09:32:43;;;;;;;16.85;9.57;;;6.70;99.90;;;;;;5036984;28;20041;-93
2022/01/23 09:35:09;;;;;;;17.00;9.27;;;6.80;99.90;;;;;;5037088;28;20041;-93
2022/01/23 09:37:35;;;;;;;17.65;8.38;;;6.80;99.90;;;;;;5036888;28;20044;-93
2022/01/23 09:40:01;;;;;;;16.38;9.20;;;6.80;99.90;;;;;;5053685;28;20045;-92
2022/01/23 09:42:33;;;;;;;17.63;10.00;;;6.90;99.90;;;;;;5053678;28;20108;-93
2022/01/23 09:45:07;;;;;;;18.67;9.50;;;6.90;99.90;;;;;;5037077;28;20033;-92
2022/01/23 09:47:34;;;;;;;15.40;8.98;;;6.90;99.90;;;;;;5037092;28;20052;-93
2022/01/23 09:50:03;;;;;;;15.70;8.35;;;6.90;99.90;;;;;;5037439;28;20052;-93
2022/01/23 09:52:31;;;;;;;14.32;8.38;;;6.90;99.90;;;;;;5053329;28;20036;-92
2022/01/23 09:54:59;;;;;;;15.57;9.00;;;7.00;99.90;;;;;;5036675;28;20490;-92
2022/01/23 09:57:29;;;;;;;17.27;8.60;;;7.00;99.90;;;;;;5036926;28;20128;-93
2022/01/23 09:59:56;;;;;;;15.45;8.05;;;6.90;99.90;;;;;;5053717;28;20037;-92
2022/01/23 10:02:23;;;;;;;15.10;8.07;;;7.00;99.90;;;;;;5036363;28;20044;-92
2022/01/23 10:04:52;;;;;;;17.38;9.15;;;7.00;99.90;;;;;;5036903;28;20037;-93
2022/01/23 10:07:20;;;;;;;13.95;7.63;;;7.00;99.90;;;;;;5036634;28;20090;-92
2022/01/23 10:09:52;;;;;;;12.48;7.57;;;7.00;99.90;;;;;;5051318;28;20072;-93
2022/01/23 10:12:19;;;;;;;14.43;7.65;;;7.00;99.90;;;;;;5050224;28;20465;-93
2022/01/23 10:14:45;;;;;;;14.23;7.65;;;7.00;99.90;;;;;;5035007;28;20119;-93
2022/01/23 10:17:10;;;;;;;15.13;7.57;;;7.10;99.90;;;;;;5034056;28;20517;-92
2022/01/23 10:19:37;;;;;;;14.07;8.00;;;7.10;99.90;;;;;;5048380;28;20390;-92
2022/01/23 10:22:05;;;;;;;13.88;6.43;;;7.10;99.90;;;;;;5050924;28;20505;-92
2022/01/23 10:24:32;;;;;;;13.93;6.40;;;7.10;99.90;;;;;;5035076;28;20087;-93
2022/01/23 10:26:59;;;;;;;11.75;5.95;;;7.20;99.90;;;;;;5052040;28;20045;-92
2022/01/23 10:29:35;;;;;;;11.10;5.93;;;7.20;99.90;;;;;;5053075;28;20497;-92
2022/01/23 10:32:21;;;;;;;10.30;5.07;;;7.20;99.90;;;;;;5035644;28;20040;-93
2022/01/23 10:34:57;;;;;;;10.48;5.38;;;7.20;99.90;;;;;;5036246;28;20041;-93
2022/01/23 10:37:35;;;;;;;12.25;5.47;;;7.30;99.90;;;;;;5035938;28;20132;-93
2022/01/23 10:40:27;;;;;;;10.00;5.55;;;7.30;99.90;;;;;;5035900;28;20047;-92
2022/01/23 10:46:37;;;;;;;10.68;5.25;;;7.30;99.90;;;;;;5047033;28;20048;-92
2022/01/23 10:48:42;;;;;;;11.07;4.43;;;7.40;99.90;;;;;;5052089;28;20044;-92
2022/01/23 10:51:24;;;;;;;10.30;4.55;;;7.40;99.90;;;;;;5052567;28;20033;-93
2022/01/23 10:53:58;;;;;;;7.38;3.08;;;7.40;99.90;;;;;;5036170;28;20065;-94
2022/01/23 10:56:26;;;;;;;8.63;3.35;;;7.40;99.90;;;;;;5035065;28;20041;-92
2022/01/23 10:58:59;;;;;;;8.23;3.20;;;7.40;99.90;;;;;;5035512;28;20041;-93
2022/01/23 11:01:27;;;;;;;;;;;7.50;99.90;;;;;;5035982;28;20154;-92
2022/01/23 11:04:11;;;;;;;8.27;3.30;;;7.40;99.90;;;;;;5034731;28;19923;-93
2022/01/23 11:07:00;;;;;;;9.68;3.40;;;7.40;99.90;;;;;;5052018;28;20154;-93
2022/01/23 11:09:37;;;;;;;9.82;3.55;;;7.50;99.90;;;;;;5035407;28;20418;-93
2022/01/23 11:12:13;;;;;;;9.07;3.88;;;7.50;99.90;;;;;;5034203;28;20045;-93
2022/01/23 11:17:25;;;;;;;8.63;3.97;;;7.50;99.90;;;;;;5051572;28;20049;-93
2022/01/23 11:19:57;;;;;;;7.85;3.67;;;7.60;99.90;;;;;;5051042;28;20036;-93
2022/01/23 11:22:32;;;;;;;9.85;4.00;;;7.60;99.90;;;;;;5034736;28;20410;-92
2022/01/23 11:25:07;;;;;;;7.55;3.03;;;7.60;99.90;;;;;;5051680;28;20037;-93
2022/01/23 11:27:38;;;;;;;7.75;2.67;;;7.60;99.90;;;;;;5035040;28;20438;-93
2022/01/23 11:30:08;;;;;;;2.60;0.95;;;7.70;99.90;;;;;;5023333;28;20033;-92
2022/01/23 11:32:39;;;;;;;1.77;0.85;;;7.70;99.90;;;;;;5030357;28;20033;-92
2022/01/23 11:35:14;;;;;;;4.38;1.13;;;7.60;99.90;;;;;;5014905;28;20491;-92
2022/01/23 11:37:50;;;;;;;1.58;0.82;;;7.60;99.90;;;;;;5014635;28;20108;-92
2022/01/23 11:53:45;;;;;;;7.32;3.15;;;7.60;99.90;;;;;;5043301;28;20476;-93
2022/01/23 11:54:13;;;;;;;8.73;3.80;;;7.60;99.90;;;;;;5051365;28;20128;-92
2022/01/23 11:56:41;;;;;;;10.25;4.20;;;7.60;99.90;;;;;;5043042;28;20131;-91
2022/01/23 11:59:11;;;;;;;8.98;3.90;;;7.60;99.90;;;;;;5050261;28;20033;-93
2022/01/23 12:01:39;;;;;;;10.82;4.18;;;7.50;99.90;;;;;;5026625;28;20044;-92
2022/01/23 12:04:16;;;;;;;9.43;3.30;;;7.60;99.90;;;;;;5023167;28;20033;-92
2022/01/23 12:06:44;;;;;;;8.05;3.60;;;7.60;99.90;;;;;;5039162;28;20045;-93
2022/01/23 12:09:10;;;;;;;8.15;3.60;;;7.60;99.90;;;;;;5032052;28;20751;-93
2022/01/23 12:16:23;;;;;;;9.13;4.30;;;7.50;99.90;;;;;;5050921;28;20052;-93
2022/01/23 12:17:01;;;;;;;8.63;4.38;;;7.50;99.90;;;;;;5048576;28;20051;-93
2022/01/23 12:20:06;;;;;;;9.20;4.55;;;7.50;99.90;;;;;;5050964;28;20044;-92
2022/01/23 12:22:42;;;;;;;10.32;4.47;;;7.50;99.90;;;;;;5044274;28;20073;-93
2022/01/23 12:25:18;;;;;;;9.57;4.10;;;7.50;99.90;;;;;;5041471;28;20037;-93
2022/01/23 12:27:44;;;;;;;10.02;4.13;;;7.50;99.90;;;;;;5041623;28;20040;-92
2022/01/23 12:30:15;;;;;;;8.82;4.05;;;7.50;99.90;;;;;;5039408;28;20033;-92
2022/01/23 12:32:41;;;;;;;9.40;4.57;;;7.60;99.90;;;;;;5022084;28;20044;-93
2022/01/23 12:35:08;;;;;;;5.90;2.17;;;7.60;99.90;;;;;;5040833;28;20072;-93
2022/01/23 12:38:09;;;;;;;2.78;1.05;;;7.50;99.90;;;;;;5023323;28;20041;-92
2022/01/23 12:40:41;;;;;;;2.35;1.00;;;7.50;99.90;;;;;;4982334;28;20050;-92
2022/01/23 12:43:21;;;;;;;3.15;0.95;;;7.50;99.90;;;;;;4987617;28;20050;-93
2022/01/23 12:45:55;;;;;;;3.55;1.20;;;7.50;99.90;;;;;;4990346;28;20098;-93
2022/01/23 12:48:26;;;;;;;4.40;1.35;;;7.50;99.90;;;;;;4991753;28;20042;-93
2022/01/23 12:51:00;;;;;;;3.92;1.20;;;7.50;99.90;;;;;;4972339;28;20038;-92
2022/01/23 12:53:45;;;;;;;3.67;1.30;;;7.40;99.90;;;;;;4988995;28;20042;-93
2022/01/23 12:56:14;;;;;;;4.88;1.55;;;7.40;99.90;;;;;;4990717;28;20136;-93
2022/01/23 12:58:41;;;;;;;4.43;1.40;;;7.40;99.90;;;;;;4988958;28;20034;-93
2022/01/23 13:01:21;;;;;;;4.50;1.20;;;7.40;99.90;;;;;;4989892;28;20515;-92
2022/01/23 13:04:07;;;;;;;3.80;1.38;;;7.40;99.90;;;;;;4975202;28;20046;-93
2022/01/23 13:06:39;;;;;;;2.95;1.10;;;7.40;99.90;;;;;;4999894;28;20053;-92
2022/01/23 13:09:18;;;;;;;4.40;1.43;;;7.40;99.90;;;;;;4983183;28;20120;-93
2022/01/23 13:14:40;;;;;;;4.37;1.50;;;7.40;99.90;;;;;;4999551;28;20054;-92
2022/01/23 13:26:22;;;;;;;5.38;1.85;;;7.40;99.90;;;;;;5057215;28;20517;-93
2022/01/23 13:26:36;;;;;;;6.60;2.83;;;7.40;99.90;;;;;;5057753;28;20040;-92
2022/01/23 13:30:52;;;;;;;4.00;1.50;;;7.40;99.90;;;;;;5026862;28;20102;-93
2022/01/23 13:33:24;;;;;;;6.50;1.88;;;7.40;99.90;;;;;;5027700;28;20056;-92
2022/01/23 13:35:52;;;;;;;6.13;1.70;;;7.40;99.90;;;;;;5028889;28;20371;-93
2022/01/23 13:38:19;;;;;;;5.15;1.60;;;7.40;99.90;;;;;;5030601;28;20033;-93
2022/01/23 13:40:46;;;;;;;5.82;1.85;;;7.30;99.90;;;;;;5029972;28;20460;-93
2022/01/23 13:49:23;;;;;;;5.40;2.03;;;7.30;99.90;;;;;;5046939;28;20037;-92
2022/01/23 13:59:19;;;;;;;2.40;1.10;;;7.30;99.90;;;;;;5042640;28;20037;-92
2022/01/23 14:04:16;;;;;;;5.50;1.60;;;7.30;99.90;;;;;;5053340;28;20127;-92
2022/01/23 14:06:43;;;;;;;4.20;1.70;;;7.40;99.90;;;;;;5026901;28;20495;-92
2022/01/23 14:09:11;;;;;;;4.95;1.70;;;7.40;99.90;;;;;;5024772;28;20079;-92
2022/01/23 14:11:37;;;;;;;4.40;1.70;;;7.40;99.90;;;;;;5037098;28;20483;-92
2022/01/23 14:14:24;;;;;;;5.57;1.92;;;7.40;99.90;;;;;;5042053;28;20552;-91
2022/01/23 14:16:54;;;;;;;6.32;1.92;;;7.40;99.90;;;;;;5044442;28;20502;-92
2022/01/23 14:19:19;;;;;;;5.30;1.88;;;7.40;99.90;;;;;;5035702;28;20041;-91
2022/01/23 14:21:51;;;;;;;5.60;1.77;;;7.40;99.90;;;;;;5035470;28;20037;-91
2022/01/23 14:24:28;;;;;;;5.07;1.85;;;7.50;99.90;;;;;;5035927;28;20032;-91
2022/01/23 14:27:06;;;;;;;5.50;1.83;;;7.50;99.90;;;;;;5035601;28;20045;-92
2022/01/23 14:29:50;;;;;;;5.45;1.88;;;7.50;99.90;;;;;;5052201;28;20045;-92
2022/01/23 14:32:42;;;;;;;3.78;1.55;;;7.50;99.90;;;;;;5034498;28;20127;-92
2022/01/23 14:35:08;;;;;;;5.22;2.08;;;7.50;99.90;;;;;;5044030;28;20453;-92
2022/01/23 14:37:33;;;;;;;4.57;1.70;;;7.50;99.90;;;;;;5024572;28;20041;-91
2022/01/23 14:40:21;;;;;;;5.22;1.80;;;7.50;99.90;;;;;;5051616;28;20053;-91
2022/01/23 14:43:02;;;;;;;6.45;1.92;;;7.60;99.90;;;;;;5051803;28;20041;-91
2022/01/23 14:45:29;;;;;;;8.02;2.10;;;7.60;99.90;;;;;;5034945;28;20041;-91
2022/01/23 14:47:55;;;;;;;5.30;1.85;;;7.60;99.90;;;;;;5051235;28;20041;-91
2022/01/23 14:50:24;;;;;;;6.00;2.20;;;7.60;99.90;;;;;;5051266;28;20055;-91
2022/01/23 14:52:50;;;;;;;5.65;2.35;;;7.60;99.90;;;;;;5050469;28;20084;-91
2022/01/23 14:55:16;;;;;;;5.85;2.35;;;7.60;99.90;;;;;;5034251;28;20119;-92
2022/01/23 14:57:44;;;;;;;7.05;2.42;;;7.60;99.90;;;;;;5050919;28;20036;-92
2022/01/23 15:00:13;;;;;;;6.07;2.60;;;7.60;99.90;;;;;;5050663;28;20128;-91
2022/01/23 15:02:41;;;;;;;6.90;2.33;;;7.60;99.90;;;;;;5051293;28;20051;-92
2022/01/23 15:05:07;;;;;;;6.40;2.28;;;7.60;99.90;;;;;;5051022;28;20510;-92
2022/01/23 15:07:39;;;;;;;6.40;2.28;;;7.60;99.90;;;;;;5031605;28;20499;-92
2022/01/23 15:10:06;;;;;;;6.57;2.53;;;7.60;99.90;;;;;;5032587;28;20056;-92
2022/01/23 15:12:32;;;;;;;6.72;2.65;;;7.60;99.90;;;;;;5031517;28;20080;-92
2022/01/23 15:14:58;;;;;;;6.32;2.63;;;7.60;99.90;;;;;;5051379;28;20072;-92
2022/01/23 15:17:25;;;;;;;6.40;2.10;;;7.50;99.90;;;;;;5034731;28;20522;-91
2022/01/23 15:19:52;;;;;;;7.13;2.65;;;7.50;99.90;;;;;;5051217;28;20044;-92
2022/01/23 15:22:17;;;;;;;8.13;2.42;;;7.50;99.90;;;;;;5051029;28;20045;-92
2022/01/23 15:24:44;;;;;;;6.22;2.15;;;7.50;99.90;;;;;;5047915;28;20029;-92
2022/01/23 15:27:10;;;;;;;6.28;2.17;;;7.50;99.90;;;;;;5041011;28;20093;-92
2022/01/23 15:29:36;;;;;;;7.78;2.55;;;7.50;99.90;;;;;;5040707;28;20122;-92
2022/01/23 15:32:01;;;;;;;6.90;2.53;;;7.50;99.90;;;;;;5023429;28;20099;-92
2022/01/23 15:34:28;;;;;;;7.75;2.28;;;7.40;99.90;;;;;;5017680;28;20045;-92
2022/01/23 15:36:53;;;;;;;6.05;2.33;;;7.40;99.90;;;;;;5031365;28;20053;-91
2022/01/23 15:39:20;;;;;;;6.97;2.80;;;7.50;99.90;;;;;;5020286;28;20434;-93
2022/01/23 15:41:47;;;;;;;6.45;2.45;;;7.40;99.90;;;;;;5045626;28;20079;-93
2022/01/23 15:44:12;;;;;;;7.18;2.83;;;7.40;99.90;;;;;;5051032;28;20494;-91
2022/01/23 15:46:38;;;;;;;7.03;2.53;;;7.40;99.90;;;;;;5050707;28;20052;-91
2022/01/23 15:49:05;;;;;;;6.40;2.65;;;7.40;99.90;;;;;;5034447;28;20047;-92
2022/01/23 15:51:31;;;;;;;6.72;2.72;;;7.40;99.90;;;;;;5031299;28;20092;-93
2022/01/23 15:53:57;;;;;;;6.10;2.00;;;7.40;99.90;;;;;;5025292;28;20032;-92
2022/01/23 15:56:22;;;;;;;5.93;2.40;;;7.40;99.90;;;;;;5024573;28;20466;-92
2022/01/23 15:58:48;;;;;;;6.78;2.58;;;7.30;99.90;;;;;;5040245;28;20072;-92
2022/01/23 16:01:13;;;;;;;6.18;2.25;;;7.30;99.90;;;;;;5024906;28;20568;-91
2022/01/23 16:03:39;;;;;;;6.43;2.08;;;7.30;99.90;;;;;;5038700;28;20115;-92
2022/01/23 16:06:08;;;;;;;6.55;2.35;;;7.30;99.90;;;;;;5038716;28;20041;-91